createdAt,value
2023-08-29T00:00:47.826Z,64.70
2023-08-29T00:03:16.533Z,65.10
2023-08-29T00:05:43.931Z,65.10
2023-08-29T00:08:11.278Z,65.30
2023-08-29T00:10:38.576Z,66.20
2023-08-29T00:13:05.908Z,66.10
2023-08-29T00:15:33.871Z,66.40
2023-08-29T00:18:01.393Z,66.00
2023-08-29T00:20:30.168Z,66.80
2023-08-29T00:22:57.498Z,66.70
2023-08-29T00:25:24.890Z,66.30
2023-08-29T00:27:52.200Z,66.60
2023-08-29T00:30:19.536Z,66.80
2023-08-29T00:32:46.919Z,66.40
2023-08-29T00:35:14.401Z,66.10
2023-08-29T00:37:43.495Z,65.80
2023-08-29T00:40:11.906Z,66.30
2023-08-29T00:42:39.211Z,66.50
2023-08-29T00:45:07.773Z,65.80
2023-08-29T00:47:35.570Z,66.00
2023-08-29T00:50:03.304Z,66.10
2023-08-29T00:52:31.818Z,65.80
2023-08-29T00:55:00.756Z,65.80
2023-08-29T00:57:28.123Z,65.80
2023-08-29T00:59:55.723Z,66.00
2023-08-29T01:02:23.035Z,65.80
2023-08-29T01:04:50.408Z,65.70
2023-08-29T01:07:18.909Z,65.70
2023-08-29T01:09:46.573Z,65.60
2023-08-29T01:12:17.564Z,65.80
2023-08-29T01:14:55.447Z,65.70
2023-08-29T01:17:28.837Z,65.90
2023-08-29T01:19:56.480Z,65.60
2023-08-29T01:22:30.454Z,66.10
2023-08-29T01:25:11.494Z,66.00
2023-08-29T01:27:40.944Z,65.60
2023-08-29T01:30:09.758Z,66.00
2023-08-29T01:32:38.096Z,65.70
2023-08-29T01:35:07.416Z,65.60
2023-08-29T01:37:34.728Z,65.30
2023-08-29T01:40:02.154Z,65.60
2023-08-29T01:42:29.510Z,65.70
2023-08-29T01:44:58.321Z,65.50
2023-08-29T01:47:25.799Z,65.70
2023-08-29T01:49:53.193Z,65.10
2023-08-29T01:52:20.531Z,65.50
2023-08-29T01:54:47.953Z,65.80
2023-08-29T01:57:16.201Z,65.70
2023-08-29T01:59:45.720Z,65.40
2023-08-29T02:02:15.421Z,65.80
2023-08-29T02:04:43.097Z,65.60
2023-08-29T02:07:10.433Z,65.80
2023-08-29T02:09:37.788Z,66.20
2023-08-29T02:12:05.494Z,66.30
2023-08-29T02:14:33.923Z,66.20
2023-08-29T02:17:01.226Z,66.70
2023-08-29T02:19:30.139Z,66.20
2023-08-29T02:21:57.508Z,66.20
2023-08-29T02:24:24.793Z,66.00
2023-08-29T02:26:52.093Z,66.60
2023-08-29T02:29:19.413Z,66.70
2023-08-29T02:31:46.874Z,66.40
2023-08-29T02:34:14.247Z,66.40
2023-08-29T02:36:43.837Z,66.40
2023-08-29T02:39:11.837Z,66.20
2023-08-29T02:41:39.210Z,66.20
2023-08-29T02:44:06.924Z,66.00
2023-08-29T02:46:34.381Z,65.90
2023-08-29T02:49:01.754Z,66.00
2023-08-29T02:51:29.096Z,66.20
2023-08-29T02:53:57.959Z,66.60
2023-08-29T02:56:25.412Z,66.40
2023-08-29T02:58:55.597Z,66.60
2023-08-29T03:01:23.068Z,66.40
2023-08-29T03:03:51.273Z,66.20
2023-08-29T03:06:18.717Z,66.40
2023-08-29T03:08:46.250Z,66.30
2023-08-29T03:11:15.142Z,66.50
2023-08-29T03:13:42.582Z,66.50
2023-08-29T03:16:13.584Z,66.60
2023-08-29T03:18:42.261Z,66.70
2023-08-29T03:21:10.591Z,66.40
2023-08-29T03:23:37.964Z,66.70
2023-08-29T03:26:08.809Z,66.60
2023-08-29T03:28:39.208Z,66.50
2023-08-29T03:31:11.578Z,66.50
2023-08-29T03:33:39.294Z,67.00
2023-08-29T03:36:07.119Z,66.70
2023-08-29T03:38:35.657Z,66.80
2023-08-29T03:41:04.806Z,66.60
2023-08-29T03:43:33.346Z,66.90
2023-08-29T03:46:03.732Z,67.00
2023-08-29T03:48:32.705Z,66.80
2023-08-29T03:51:03.653Z,67.00
2023-08-29T03:53:31.673Z,67.10
2023-08-29T03:56:00.585Z,67.10
2023-08-29T03:58:28.120Z,67.30
2023-08-29T04:00:55.568Z,67.10
2023-08-29T04:03:24.578Z,67.40
2023-08-29T04:05:52.696Z,67.50
2023-08-29T04:08:20.048Z,67.20
2023-08-29T04:10:48.075Z,66.90
2023-08-29T04:13:15.403Z,67.10
2023-08-29T04:15:44.564Z,67.30
2023-08-29T04:18:12.456Z,67.60
2023-08-29T04:20:41.140Z,67.90
2023-08-29T04:23:08.583Z,67.70
2023-08-29T04:25:37.618Z,67.70
2023-08-29T04:28:05.645Z,68.00
2023-08-29T04:30:33.285Z,67.80
2023-08-29T04:33:01.010Z,67.40
2023-08-29T04:35:28.589Z,67.60
2023-08-29T04:37:57.276Z,68.20
2023-08-29T04:40:24.588Z,68.00
2023-08-29T04:42:52.599Z,68.20
2023-08-29T04:45:21.050Z,68.00
2023-08-29T04:47:48.741Z,67.90
2023-08-29T04:50:16.581Z,68.00
2023-08-29T04:52:44.159Z,67.80
2023-08-29T04:55:12.873Z,68.20
2023-08-29T04:57:40.268Z,67.70
2023-08-29T05:00:10.642Z,68.10
2023-08-29T05:02:38.001Z,68.50
2023-08-29T05:05:07.108Z,68.30
2023-08-29T05:07:34.948Z,68.20
2023-08-29T05:10:03.015Z,68.40
2023-08-29T05:12:31.787Z,68.30
2023-08-29T05:14:59.224Z,68.50
2023-08-29T05:17:27.046Z,68.60
2023-08-29T05:19:55.825Z,68.80
2023-08-29T05:22:23.249Z,68.50
2023-08-29T05:24:50.903Z,68.20
2023-08-29T05:27:18.380Z,68.80
2023-08-29T05:29:47.107Z,68.20
2023-08-29T05:32:14.435Z,68.70
2023-08-29T05:34:41.935Z,68.60
2023-08-29T05:37:09.237Z,69.10
2023-08-29T05:39:36.595Z,68.80
2023-08-29T05:42:04.247Z,69.30
2023-08-29T05:44:31.594Z,69.50
2023-08-29T05:47:00.258Z,69.20
2023-08-29T05:49:27.552Z,69.40
2023-08-29T05:51:54.873Z,69.60
2023-08-29T05:54:22.297Z,69.60
2023-08-29T05:56:49.590Z,69.30
2023-08-29T05:59:16.900Z,69.40
2023-08-29T06:01:44.408Z,69.30
2023-08-29T06:04:13.039Z,69.60
2023-08-29T06:06:41.268Z,69.70
2023-08-29T06:09:09.716Z,69.50
2023-08-29T06:11:37.077Z,69.80
2023-08-29T06:14:04.497Z,69.40
2023-08-29T06:16:31.850Z,69.50
2023-08-29T06:18:59.721Z,69.40
2023-08-29T06:21:28.348Z,69.20
2023-08-29T06:23:55.751Z,70.10
2023-08-29T06:26:23.591Z,70.70
2023-08-29T06:28:51.034Z,70.90
2023-08-29T06:31:18.483Z,70.00
2023-08-29T06:33:46.119Z,70.30
2023-08-29T06:36:13.458Z,70.60
2023-08-29T06:38:43.805Z,70.80
2023-08-29T06:41:11.200Z,70.90
2023-08-29T06:43:38.558Z,71.00
2023-08-29T06:46:05.942Z,71.00
2023-08-29T06:48:33.236Z,70.90
2023-08-29T06:51:00.617Z,71.20
2023-08-29T06:53:28.534Z,71.10
2023-08-29T06:55:57.350Z,71.10
2023-08-29T06:58:24.713Z,70.70
2023-08-29T07:00:53.007Z,70.70
2023-08-29T07:03:20.659Z,69.90
2023-08-29T07:05:48.320Z,70.20
2023-08-29T07:08:15.966Z,70.00
2023-08-29T07:10:43.279Z,70.10
2023-08-29T07:13:11.910Z,69.30
2023-08-29T07:15:39.244Z,70.30
2023-08-29T07:18:07.389Z,70.50
2023-08-29T07:20:35.180Z,70.20
2023-08-29T07:23:02.546Z,70.30
2023-08-29T07:25:38.012Z,70.50
2023-08-29T07:28:06.442Z,70.10
2023-08-29T07:30:35.337Z,70.80
2023-08-29T07:33:02.697Z,70.90
2023-08-29T07:35:30.096Z,70.70
2023-08-29T07:37:57.428Z,70.40
2023-08-29T07:40:24.746Z,70.30
2023-08-29T07:42:52.106Z,70.20
2023-08-29T07:45:19.600Z,70.40
2023-08-29T07:47:49.297Z,70.10
2023-08-29T07:50:16.777Z,70.00
2023-08-29T07:52:44.162Z,70.50
2023-08-29T07:55:11.711Z,70.90
2023-08-29T07:57:39.007Z,70.90
2023-08-29T08:00:10.852Z,70.90
2023-08-29T08:02:39.717Z,70.70
2023-08-29T08:05:13.852Z,70.90
2023-08-29T08:07:42.370Z,71.00
2023-08-29T08:10:11.459Z,70.90
2023-08-29T08:12:39.944Z,71.20
2023-08-29T08:15:09.174Z,71.20
2023-08-29T08:17:36.899Z,71.00
2023-08-29T08:20:09.013Z,71.20
2023-08-29T08:22:38.571Z,71.40
2023-08-29T08:25:06.742Z,71.80
2023-08-29T08:27:35.497Z,71.70
2023-08-29T08:30:03.349Z,71.40
2023-08-29T08:32:30.648Z,71.50
2023-08-29T08:34:58.688Z,71.60
2023-08-29T08:37:26.066Z,71.10
2023-08-29T08:39:54.757Z,71.00
2023-08-29T08:42:22.166Z,70.90
2023-08-29T08:44:49.508Z,70.90
2023-08-29T08:47:17.084Z,70.40
2023-08-29T08:49:44.695Z,70.80
2023-08-29T08:52:12.505Z,71.20
2023-08-29T08:54:39.836Z,71.10
2023-08-29T08:57:10.608Z,71.10
2023-08-29T08:59:40.554Z,71.20
2023-08-29T09:02:11.349Z,71.20
2023-08-29T09:04:38.887Z,71.30
2023-08-29T09:07:06.225Z,71.20
2023-08-29T09:09:33.637Z,71.50
2023-08-29T09:12:01.003Z,71.40
2023-08-29T09:14:30.464Z,71.00
2023-08-29T09:16:59.264Z,71.50
2023-08-29T09:19:30.326Z,71.10
2023-08-29T09:21:59.034Z,71.20
2023-08-29T09:24:34.060Z,71.30
2023-08-29T09:27:02.246Z,70.40
2023-08-29T09:29:31.782Z,70.30
2023-08-29T09:31:59.522Z,70.20
2023-08-29T09:34:28.405Z,70.50
2023-08-29T09:36:56.627Z,70.20
2023-08-29T09:39:24.557Z,69.50
2023-08-29T09:42:02.718Z,69.40
2023-08-29T09:44:36.074Z,69.10
2023-08-29T09:47:03.864Z,68.50
2023-08-29T09:49:33.331Z,68.50
2023-08-29T09:52:02.321Z,68.40
2023-08-29T09:54:32.390Z,67.60
2023-08-29T09:57:06.841Z,67.60
2023-08-29T09:59:39.306Z,67.30
2023-08-29T10:02:09.807Z,67.40
2023-08-29T10:04:39.731Z,67.30
2023-08-29T10:07:08.329Z,67.30
2023-08-29T10:09:37.093Z,67.10
2023-08-29T10:12:06.254Z,67.20
2023-08-29T10:14:35.238Z,67.50
2023-08-29T10:17:06.123Z,67.40
2023-08-29T10:19:37.842Z,67.60
2023-08-29T10:22:08.313Z,67.50
2023-08-29T10:24:37.470Z,67.40
2023-08-29T10:27:05.511Z,67.20
2023-08-29T10:29:33.531Z,67.00
2023-08-29T10:32:04.253Z,67.30
2023-08-29T10:34:32.005Z,67.10
2023-08-29T10:37:01.074Z,67.10
2023-08-29T10:39:28.793Z,67.20
2023-08-29T10:41:58.014Z,67.70
2023-08-29T10:44:44.881Z,67.30
2023-08-29T10:47:21.041Z,67.40
2023-08-29T10:49:49.031Z,67.50
2023-08-29T10:52:19.713Z,67.10
2023-08-29T10:54:47.225Z,67.30
2023-08-29T10:57:28.303Z,67.10
2023-08-29T10:59:55.954Z,67.60
2023-08-29T11:02:27.327Z,67.70
2023-08-29T11:05:11.244Z,67.80
2023-08-29T11:07:40.074Z,67.70
2023-08-29T11:10:15.239Z,67.10
2023-08-29T11:13:07.733Z,67.30
2023-08-29T11:16:07.016Z,67.40
2023-08-29T11:18:35.885Z,67.70
2023-08-29T11:21:07.488Z,67.60
2023-08-29T11:23:39.953Z,67.60
2023-08-29T11:26:09.315Z,67.70
2023-08-29T11:28:40.963Z,67.80
2023-08-29T11:31:08.810Z,67.40
2023-08-29T11:33:38.922Z,67.20
2023-08-29T11:36:07.764Z,67.40
2023-08-29T11:38:35.703Z,67.30
2023-08-29T11:41:13.528Z,67.20
2023-08-29T11:44:30.875Z,67.00
2023-08-29T11:46:44.320Z,67.00
2023-08-29T11:49:14.479Z,67.00
2023-08-29T11:51:41.993Z,66.70
2023-08-29T11:54:43.036Z,66.50
2023-08-29T11:57:13.111Z,66.10
2023-08-29T11:59:42.083Z,65.90
2023-08-29T12:02:12.322Z,66.10
2023-08-29T12:04:42.177Z,65.90
2023-08-29T12:07:11.488Z,66.00
2023-08-29T12:09:40.320Z,66.10
2023-08-29T12:12:08.390Z,66.10
2023-08-29T12:14:51.143Z,65.60
2023-08-29T12:17:19.199Z,65.90
2023-08-29T12:19:48.191Z,65.80
2023-08-29T12:22:20.711Z,65.50
2023-08-29T12:24:55.452Z,65.50
2023-08-29T12:27:22.990Z,65.60
2023-08-29T12:29:50.360Z,65.30
2023-08-29T12:32:17.941Z,65.50
2023-08-29T12:34:46.617Z,65.30
2023-08-29T12:37:14.778Z,65.40
2023-08-29T12:39:42.151Z,65.20
2023-08-29T12:42:09.478Z,64.80
2023-08-29T12:44:36.829Z,64.70
2023-08-29T12:47:05.694Z,64.90
2023-08-29T12:49:33.031Z,64.90
2023-08-29T12:52:01.684Z,64.80
2023-08-29T12:54:31.983Z,64.70
2023-08-29T12:56:59.288Z,64.20
2023-08-29T12:59:26.599Z,64.30
2023-08-29T13:01:54.529Z,64.60
2023-08-29T13:04:21.859Z,64.70
2023-08-29T13:06:49.177Z,64.70
2023-08-29T13:09:30.861Z,65.00
2023-08-29T13:12:04.392Z,65.00
2023-08-29T13:14:37.850Z,64.50
2023-08-29T13:17:05.942Z,64.20
2023-08-29T13:19:33.605Z,64.60
2023-08-29T13:22:02.821Z,64.50
2023-08-29T13:24:32.305Z,64.60
2023-08-29T13:26:59.661Z,64.50
2023-08-29T13:29:27.532Z,64.60
2023-08-29T13:31:54.986Z,64.70
2023-08-29T13:34:22.327Z,64.50
2023-08-29T13:36:49.808Z,64.20
2023-08-29T13:39:17.497Z,63.90
2023-08-29T13:41:46.245Z,65.00
2023-08-29T13:44:13.588Z,65.30
2023-08-29T13:46:45.140Z,65.60
2023-08-29T13:49:13.704Z,65.80
2023-08-29T13:51:41.177Z,66.00
2023-08-29T13:54:08.871Z,66.60
2023-08-29T13:56:36.788Z,66.60
2023-08-29T13:59:05.461Z,66.90
2023-08-29T14:01:32.910Z,67.00
2023-08-29T14:04:00.392Z,66.90
2023-08-29T14:06:28.418Z,67.30
2023-08-29T14:08:55.755Z,67.10
2023-08-29T14:11:23.109Z,67.70
2023-08-29T14:13:50.406Z,67.50
2023-08-29T14:16:19.183Z,67.60
2023-08-29T14:18:47.288Z,67.60
2023-08-29T14:21:15.076Z,68.00
2023-08-29T14:23:42.503Z,68.30
2023-08-29T14:26:10.152Z,68.70
2023-08-29T14:28:37.959Z,69.60
2023-08-29T14:31:05.478Z,69.90
2023-08-29T14:33:34.218Z,70.60
2023-08-29T14:36:04.612Z,70.80
2023-08-29T14:38:32.515Z,70.50
2023-08-29T14:41:07.072Z,71.10
2023-08-29T14:43:34.358Z,71.30
2023-08-29T14:46:01.763Z,71.40
2023-08-29T14:48:29.082Z,71.30
2023-08-29T14:50:57.708Z,71.60
2023-08-29T14:53:26.047Z,71.50
2023-08-29T14:55:54.141Z,71.60
2023-08-29T14:58:21.779Z,71.70
2023-08-29T15:00:49.686Z,71.80
2023-08-29T15:03:17.079Z,71.80
2023-08-29T15:05:44.412Z,72.30
2023-08-29T15:08:13.192Z,72.50
2023-08-29T15:10:40.815Z,72.00
2023-08-29T15:13:08.535Z,72.00
2023-08-29T15:15:38.464Z,71.40
2023-08-29T15:18:06.235Z,72.20
2023-08-29T15:20:34.360Z,72.20
2023-08-29T15:23:03.058Z,72.40
2023-08-29T15:25:31.704Z,71.80
2023-08-29T15:27:59.006Z,72.60
2023-08-29T15:30:26.382Z,72.10
2023-08-29T15:32:53.826Z,72.30
2023-08-29T15:35:21.141Z,72.10
2023-08-29T15:37:48.755Z,72.60
2023-08-29T15:40:16.258Z,71.80
2023-08-29T15:42:45.145Z,72.00
2023-08-29T15:45:12.633Z,72.30
2023-08-29T15:47:40.041Z,73.30
2023-08-29T15:50:08.402Z,73.30
2023-08-29T15:52:35.694Z,73.40
2023-08-29T15:55:03.133Z,72.70
2023-08-29T15:57:30.452Z,73.00
2023-08-29T15:59:59.267Z,72.90
2023-08-29T16:02:26.591Z,73.50
2023-08-29T16:04:54.595Z,73.80
2023-08-29T16:07:21.894Z,73.80
2023-08-29T16:09:49.181Z,74.10
2023-08-29T16:12:16.514Z,74.20
2023-08-29T16:14:43.967Z,74.30
2023-08-29T16:17:12.621Z,74.40
2023-08-29T16:19:39.938Z,73.80
2023-08-29T16:22:09.781Z,73.80
2023-08-29T16:24:37.156Z,74.60
2023-08-29T16:27:04.957Z,75.00
2023-08-29T16:29:32.307Z,75.40
2023-08-29T16:31:59.701Z,74.60
2023-08-29T16:34:28.386Z,74.30
2023-08-29T16:36:55.901Z,73.90
2023-08-29T16:39:23.349Z,73.70
2023-08-29T16:41:50.673Z,73.80
2023-08-29T16:44:18.593Z,73.70
2023-08-29T16:46:45.909Z,73.60
2023-08-29T16:49:13.320Z,73.70
2023-08-29T16:51:42.085Z,73.40
2023-08-29T16:54:09.412Z,73.80
2023-08-29T16:56:36.791Z,74.10
2023-08-29T16:59:04.198Z,74.20
2023-08-29T17:01:31.525Z,74.50
2023-08-29T17:03:58.962Z,74.30
2023-08-29T17:06:26.376Z,74.40
2023-08-29T17:08:56.673Z,74.30
2023-08-29T17:11:24.168Z,74.10
2023-08-29T17:13:51.549Z,74.10
2023-08-29T17:16:19.140Z,73.80
2023-08-29T17:18:48.058Z,74.20
2023-08-29T17:21:15.418Z,74.30
2023-08-29T17:23:42.742Z,74.20
2023-08-29T17:26:11.391Z,74.30
2023-08-29T17:28:38.701Z,74.80
2023-08-29T17:31:10.053Z,75.00
2023-08-29T17:33:37.734Z,74.90
2023-08-29T17:36:06.095Z,74.70
2023-08-29T17:38:33.517Z,75.20
2023-08-29T17:41:01.852Z,75.30
2023-08-29T17:43:30.528Z,75.70
2023-08-29T17:45:58.941Z,75.50
2023-08-29T17:48:27.249Z,75.80
2023-08-29T17:50:58.368Z,75.90
2023-08-29T17:53:26.165Z,75.90
2023-08-29T17:55:54.545Z,75.60
2023-08-29T17:58:22.395Z,75.70
2023-08-29T18:00:52.502Z,75.90
2023-08-29T18:03:20.219Z,75.60
2023-08-29T18:05:48.674Z,75.90
2023-08-29T18:08:16.906Z,76.10
2023-08-29T18:10:44.917Z,76.20
2023-08-29T18:13:12.677Z,76.20
2023-08-29T18:15:41.327Z,76.40
2023-08-29T18:18:22.296Z,75.70
2023-08-29T18:20:51.718Z,76.00
2023-08-29T18:23:20.072Z,76.30
2023-08-29T18:25:48.488Z,76.60
2023-08-29T18:28:15.872Z,76.50
2023-08-29T18:30:43.298Z,75.90
2023-08-29T18:33:10.874Z,75.90
2023-08-29T18:35:41.081Z,75.80
2023-08-29T18:38:09.158Z,76.20
2023-08-29T18:40:36.763Z,76.10
2023-08-29T18:43:04.374Z,75.70
2023-08-29T18:45:32.003Z,75.50
2023-08-29T18:47:59.354Z,75.90
2023-08-29T18:50:27.115Z,76.20
2023-08-29T18:52:57.619Z,75.90
2023-08-29T18:55:25.122Z,75.50
2023-08-29T18:57:52.989Z,75.30
2023-08-29T19:00:20.822Z,75.40
2023-08-29T19:02:48.541Z,75.60
2023-08-29T19:05:16.628Z,75.80
2023-08-29T19:07:46.882Z,75.40
2023-08-29T19:10:15.625Z,75.40
2023-08-29T19:12:45.446Z,75.40
2023-08-29T19:15:13.018Z,75.70
2023-08-29T19:17:40.819Z,75.60
2023-08-29T19:20:09.010Z,75.60
2023-08-29T19:22:36.415Z,75.60
2023-08-29T19:25:04.397Z,75.90
2023-08-29T19:27:33.318Z,76.20
2023-08-29T19:30:00.888Z,75.90
2023-08-29T19:32:28.612Z,75.80
2023-08-29T19:34:56.034Z,75.70
2023-08-29T19:37:23.532Z,75.50
2023-08-29T19:39:50.884Z,74.90
2023-08-29T19:42:18.381Z,75.10
2023-08-29T19:44:47.115Z,75.30
2023-08-29T19:47:14.489Z,74.90
2023-08-29T19:49:47.395Z,75.20
2023-08-29T19:52:15.202Z,75.50
2023-08-29T19:54:42.542Z,75.70
2023-08-29T19:57:09.914Z,75.40
2023-08-29T19:59:37.283Z,75.00
2023-08-29T20:02:06.123Z,75.30
2023-08-29T20:04:33.567Z,74.80
2023-08-29T20:07:00.906Z,75.30
2023-08-29T20:09:28.204Z,75.90
2023-08-29T20:11:55.569Z,75.50
2023-08-29T20:14:22.914Z,75.10
2023-08-29T20:16:52.294Z,76.00
2023-08-29T20:19:23.320Z,76.50
2023-08-29T20:21:50.624Z,76.70
2023-08-29T20:24:20.093Z,76.30
2023-08-29T20:26:48.074Z,76.50
2023-08-29T20:29:16.432Z,76.80
2023-08-29T20:31:44.094Z,76.90
2023-08-29T20:34:11.564Z,76.80
2023-08-29T20:36:40.229Z,76.70
2023-08-29T20:39:08.155Z,76.50
2023-08-29T20:41:35.574Z,76.50
2023-08-29T20:44:02.912Z,77.00
2023-08-29T20:46:30.935Z,76.80
2023-08-29T20:48:58.324Z,76.60
2023-08-29T20:51:25.652Z,76.40
2023-08-29T20:53:54.340Z,76.40
2023-08-29T20:56:21.790Z,76.10
2023-08-29T20:58:49.130Z,76.30
2023-08-29T21:01:16.934Z,76.50
2023-08-29T21:03:44.408Z,76.50
2023-08-29T21:06:12.024Z,76.50
2023-08-29T21:08:39.393Z,76.00
2023-08-29T21:11:08.079Z,76.00
2023-08-29T21:13:35.514Z,76.30
2023-08-29T21:16:03.042Z,76.70
2023-08-29T21:18:31.164Z,76.80
2023-08-29T21:21:00.238Z,76.70
2023-08-29T21:23:29.710Z,76.80
2023-08-29T21:25:57.092Z,76.70
2023-08-29T21:28:26.906Z,77.10
2023-08-29T21:30:54.996Z,77.30
2023-08-29T21:33:23.755Z,77.80
2023-08-29T21:35:52.116Z,77.70
2023-08-29T21:38:19.607Z,77.80
2023-08-29T21:40:47.348Z,77.70
2023-08-29T21:43:16.281Z,77.50
2023-08-29T21:45:52.603Z,77.20
2023-08-29T21:48:20.277Z,77.50
2023-08-29T21:50:47.671Z,77.40
2023-08-29T21:53:15.561Z,76.90
2023-08-29T21:55:43.369Z,77.10
2023-08-29T21:58:17.710Z,77.20
2023-08-29T22:00:51.797Z,77.20
2023-08-29T22:03:20.274Z,76.90
2023-08-29T22:05:47.642Z,76.50
2023-08-29T22:08:15.685Z,76.70
2023-08-29T22:10:43.019Z,76.50
2023-08-29T22:13:10.712Z,76.30
2023-08-29T22:15:38.740Z,76.30
2023-08-29T22:18:08.170Z,76.40
2023-08-29T22:20:38.991Z,76.30
2023-08-29T22:23:06.470Z,75.60
2023-08-29T22:25:33.885Z,75.80
2023-08-29T22:28:01.323Z,75.20
2023-08-29T22:30:28.676Z,75.30
2023-08-29T22:32:56.144Z,75.10
2023-08-29T22:35:24.781Z,75.20
2023-08-29T22:37:52.134Z,75.10
2023-08-29T22:40:19.552Z,75.00
2023-08-29T22:42:46.924Z,75.20
2023-08-29T22:45:14.918Z,75.30
2023-08-29T22:47:42.385Z,74.70
2023-08-29T22:50:10.161Z,74.50
2023-08-29T22:52:43.041Z,75.10
2023-08-29T22:55:10.425Z,75.30
2023-08-29T22:57:37.748Z,75.00
2023-08-29T23:00:09.904Z,75.10
2023-08-29T23:02:37.235Z,75.40
2023-08-29T23:05:06.193Z,75.50
2023-08-29T23:07:33.573Z,76.00
2023-08-29T23:10:02.229Z,75.90
2023-08-29T23:12:29.530Z,76.30
2023-08-29T23:14:57.483Z,76.20
2023-08-29T23:17:24.875Z,76.10
2023-08-29T23:19:52.275Z,76.20
2023-08-29T23:22:19.631Z,76.20
2023-08-29T23:24:46.985Z,76.20
2023-08-29T23:27:16.828Z,76.10
2023-08-29T23:29:44.120Z,75.60
2023-08-29T23:32:11.437Z,76.10
2023-08-29T23:34:38.740Z,75.90
2023-08-29T23:37:06.166Z,75.80
2023-08-29T23:39:33.656Z,75.80
2023-08-29T23:42:01.009Z,75.80
2023-08-29T23:44:30.002Z,76.00
2023-08-29T23:46:57.552Z,76.00
2023-08-29T23:49:26.617Z,75.50
2023-08-29T23:51:53.911Z,75.50
2023-08-29T23:54:21.204Z,75.60
2023-08-29T23:56:48.524Z,76.20
2023-08-29T23:59:15.818Z,76.40
